createdAt,value
2023-04-29T00:00:26.489Z,33.78
2023-04-29T00:01:59.423Z,33.96
2023-04-29T00:03:32.829Z,34.00
2023-04-29T00:05:05.668Z,34.06
2023-04-29T00:06:37.462Z,34.11
2023-04-29T00:08:09.151Z,34.38
2023-04-29T00:09:41.019Z,34.43
2023-04-29T00:11:12.594Z,34.42
2023-04-29T00:12:44.720Z,34.31
2023-04-29T00:14:16.788Z,34.53
2023-04-29T00:15:48.426Z,34.08
2023-04-29T00:17:20.443Z,34.38
2023-04-29T00:18:52.131Z,34.69
2023-04-29T00:20:23.689Z,34.15
2023-04-29T00:21:55.422Z,34.11
2023-04-29T00:23:27.289Z,34.32
2023-04-29T00:24:58.837Z,34.56
2023-04-29T00:26:30.566Z,34.29
2023-04-29T00:28:02.420Z,34.47
2023-04-29T00:29:34.154Z,34.62
2023-04-29T00:31:05.710Z,34.40
2023-04-29T00:32:37.661Z,34.44
2023-04-29T00:34:09.173Z,34.21
2023-04-29T00:35:40.822Z,34.45
2023-04-29T00:37:12.665Z,34.04
2023-04-29T00:38:44.217Z,34.27
2023-04-29T00:40:16.492Z,33.97
2023-04-29T00:41:48.015Z,34.68
2023-04-29T00:43:19.642Z,35.10
2023-04-29T00:44:51.189Z,35.20
2023-04-29T00:46:22.737Z,35.25
2023-04-29T00:47:54.344Z,34.77
2023-04-29T00:49:26.243Z,34.98
2023-04-29T00:50:57.867Z,35.53
2023-04-29T00:52:30.033Z,35.44
2023-04-29T00:54:01.680Z,35.51
2023-04-29T00:55:33.568Z,35.55
2023-04-29T00:57:06.528Z,35.60
2023-04-29T00:58:39.419Z,35.76
2023-04-29T01:00:11.236Z,35.90
2023-04-29T01:01:42.935Z,35.98
2023-04-29T01:03:14.742Z,35.48
2023-04-29T01:04:46.620Z,35.48
2023-04-29T01:06:25.220Z,36.08
2023-04-29T01:07:59.472Z,36.06
2023-04-29T01:09:40.278Z,35.48
2023-04-29T01:11:12.186Z,35.70
2023-04-29T01:12:49.556Z,35.51
2023-04-29T01:14:21.461Z,35.91
2023-04-29T01:15:56.070Z,35.57
2023-04-29T01:17:27.991Z,35.44
2023-04-29T01:18:59.569Z,36.28
2023-04-29T01:20:31.750Z,35.68
2023-04-29T01:22:03.448Z,36.25
2023-04-29T01:23:35.095Z,35.69
2023-04-29T01:25:07.303Z,36.15
2023-04-29T01:26:39.163Z,36.02
2023-04-29T01:28:29.688Z,36.04
2023-04-29T01:30:02.771Z,36.08
2023-04-29T01:31:35.274Z,35.37
2023-04-29T01:33:12.637Z,36.42
2023-04-29T01:34:47.116Z,35.71
2023-04-29T01:36:29.298Z,36.05
2023-04-29T01:38:06.044Z,35.92
2023-04-29T01:39:49.830Z,36.00
2023-04-29T01:41:41.948Z,36.21
2023-04-29T01:43:14.297Z,36.10
2023-04-29T01:44:45.929Z,36.65
2023-04-29T01:46:18.667Z,36.29
2023-04-29T01:47:51.276Z,37.10
2023-04-29T01:49:25.937Z,36.81
2023-04-29T01:50:57.545Z,36.12
2023-04-29T01:52:29.220Z,36.54
2023-04-29T01:54:00.716Z,36.29
2023-04-29T01:55:32.239Z,36.75
2023-04-29T01:57:04.722Z,36.81
2023-04-29T01:58:36.560Z,36.55
2023-04-29T02:00:09.323Z,36.37
2023-04-29T02:01:41.067Z,36.26
2023-04-29T02:03:12.981Z,37.13
2023-04-29T02:04:44.843Z,36.49
2023-04-29T02:06:16.370Z,37.39
2023-04-29T02:07:48.201Z,36.98
2023-04-29T02:09:19.931Z,37.51
2023-04-29T02:11:01.053Z,36.70
2023-04-29T02:12:32.713Z,36.75
2023-04-29T02:14:04.329Z,36.82
2023-04-29T02:15:35.918Z,37.33
2023-04-29T02:17:07.799Z,37.84
2023-04-29T02:18:40.483Z,37.74
2023-04-29T02:20:12.268Z,37.13
2023-04-29T02:21:44.165Z,37.56
2023-04-29T02:23:15.914Z,37.49
2023-04-29T02:24:47.853Z,37.42
2023-04-29T02:26:20.231Z,36.95
2023-04-29T02:27:52.211Z,36.63
2023-04-29T02:29:24.019Z,36.87
2023-04-29T02:30:55.641Z,37.63
2023-04-29T02:32:27.414Z,37.05
2023-04-29T02:34:00.392Z,37.37
2023-04-29T02:35:32.061Z,37.54
2023-04-29T02:37:04.962Z,37.38
2023-04-29T02:38:36.542Z,38.10
2023-04-29T02:40:08.789Z,37.81
2023-04-29T02:41:40.596Z,38.16
2023-04-29T02:43:12.772Z,37.85
2023-04-29T02:44:44.413Z,37.56
2023-04-29T02:46:16.833Z,37.72
2023-04-29T02:47:48.570Z,38.43
2023-04-29T02:49:20.260Z,38.04
2023-04-29T02:50:51.800Z,38.03
2023-04-29T02:52:23.393Z,37.61
2023-04-29T02:53:55.481Z,37.51
2023-04-29T02:55:27.402Z,37.78
2023-04-29T02:56:59.028Z,38.05
2023-04-29T02:58:30.624Z,38.27
2023-04-29T03:00:02.328Z,37.78
2023-04-29T03:01:34.163Z,38.50
2023-04-29T03:03:06.042Z,38.36
2023-04-29T03:04:37.939Z,38.28
2023-04-29T03:06:09.604Z,37.52
2023-04-29T03:07:41.217Z,37.90
2023-04-29T03:09:14.364Z,38.40
2023-04-29T03:10:46.734Z,38.46
2023-04-29T03:12:18.422Z,38.02
2023-04-29T03:13:50.000Z,38.00
2023-04-29T03:15:21.677Z,38.66
2023-04-29T03:16:53.451Z,37.76
2023-04-29T03:18:25.065Z,38.38
2023-04-29T03:19:57.203Z,38.55
2023-04-29T03:21:30.105Z,38.02
2023-04-29T03:23:02.858Z,38.26
2023-04-29T03:24:34.514Z,38.57
2023-04-29T03:26:06.200Z,38.40
2023-04-29T03:27:38.638Z,38.16
2023-04-29T03:29:10.380Z,38.48
2023-04-29T03:30:42.996Z,37.83
2023-04-29T03:32:14.485Z,37.78
2023-04-29T03:33:46.180Z,38.17
2023-04-29T03:35:18.069Z,38.24
2023-04-29T03:36:49.665Z,38.20
2023-04-29T03:38:21.310Z,38.04
2023-04-29T03:39:53.089Z,38.45
2023-04-29T03:41:25.211Z,38.79
2023-04-29T03:42:57.157Z,38.28
2023-04-29T03:44:29.449Z,38.68
2023-04-29T03:46:01.243Z,38.98
2023-04-29T03:47:33.629Z,39.39
2023-04-29T03:49:05.304Z,38.81
2023-04-29T03:50:37.165Z,38.95
2023-04-29T03:52:09.505Z,39.36
2023-04-29T03:53:46.403Z,38.88
2023-04-29T03:55:18.412Z,39.54
2023-04-29T03:56:49.932Z,39.57
2023-04-29T03:58:29.254Z,38.84
2023-04-29T04:00:01.323Z,38.80
2023-04-29T04:01:33.644Z,39.41
2023-04-29T04:03:06.087Z,39.49
2023-04-29T04:04:38.313Z,39.22
2023-04-29T04:06:10.285Z,39.06
2023-04-29T04:07:42.137Z,39.57
2023-04-29T04:09:14.133Z,39.78
2023-04-29T04:10:46.679Z,39.40
2023-04-29T04:12:18.301Z,39.04
2023-04-29T04:13:50.299Z,39.58
2023-04-29T04:15:23.771Z,39.47
2023-04-29T04:16:55.427Z,39.17
2023-04-29T04:18:27.134Z,40.13
2023-04-29T04:19:59.569Z,39.48
2023-04-29T04:21:32.549Z,40.11
2023-04-29T04:23:04.408Z,39.42
2023-04-29T04:24:36.123Z,39.52
2023-04-29T04:26:07.814Z,39.92
2023-04-29T04:27:39.546Z,40.13
2023-04-29T04:29:11.184Z,39.83
2023-04-29T04:30:43.423Z,39.79
2023-04-29T04:32:15.165Z,40.63
2023-04-29T04:33:47.290Z,40.48
2023-04-29T04:35:18.919Z,40.75
2023-04-29T04:36:50.573Z,40.72
2023-04-29T04:38:25.505Z,40.77
2023-04-29T04:39:57.539Z,40.17
2023-04-29T04:41:32.041Z,40.55
2023-04-29T04:43:03.740Z,40.48
2023-04-29T04:44:35.399Z,40.55
2023-04-29T04:46:13.638Z,40.96
2023-04-29T04:47:45.624Z,40.90
2023-04-29T04:49:18.248Z,40.52
2023-04-29T04:50:50.087Z,40.01
2023-04-29T04:52:22.579Z,39.94
2023-04-29T04:53:54.646Z,39.70
2023-04-29T04:55:26.528Z,39.85
2023-04-29T04:56:58.066Z,39.61
2023-04-29T04:58:31.548Z,40.51
2023-04-29T05:00:04.506Z,40.37
2023-04-29T05:01:36.240Z,40.33
2023-04-29T05:03:07.849Z,40.75
2023-04-29T05:04:39.466Z,40.74
2023-04-29T05:06:11.279Z,40.14
2023-04-29T05:07:44.007Z,40.29
2023-04-29T05:09:15.831Z,40.83
2023-04-29T05:10:47.403Z,40.35
2023-04-29T05:12:19.067Z,40.72
2023-04-29T05:13:50.699Z,40.70
2023-04-29T05:15:22.319Z,40.69
2023-04-29T05:16:53.895Z,40.30
2023-04-29T05:18:27.474Z,40.19
2023-04-29T05:20:12.783Z,40.34
2023-04-29T05:21:45.902Z,40.52
2023-04-29T05:23:18.240Z,40.83
2023-04-29T05:24:51.848Z,40.95
2023-04-29T05:26:24.058Z,41.15
2023-04-29T05:27:57.152Z,40.83
2023-04-29T05:29:29.320Z,41.40
2023-04-29T05:31:01.097Z,40.91
2023-04-29T05:32:33.939Z,41.48
2023-04-29T05:34:06.611Z,41.40
2023-04-29T05:35:38.650Z,41.04
2023-04-29T05:37:13.718Z,41.17
2023-04-29T05:38:46.209Z,41.11
2023-04-29T05:40:24.907Z,41.21
2023-04-29T05:41:59.438Z,41.50
2023-04-29T05:43:36.901Z,41.54
2023-04-29T05:45:09.605Z,41.26
2023-04-29T05:46:42.161Z,41.67
2023-04-29T05:48:14.432Z,41.42
2023-04-29T05:49:47.426Z,41.62
2023-04-29T05:51:19.496Z,41.68
2023-04-29T05:52:52.767Z,41.24
2023-04-29T05:54:24.900Z,41.31
2023-04-29T05:55:56.937Z,41.53
2023-04-29T05:57:28.738Z,41.13
2023-04-29T05:59:00.589Z,41.36
2023-04-29T06:00:32.920Z,41.70
2023-04-29T06:02:04.620Z,41.67
2023-04-29T06:03:36.616Z,41.66
2023-04-29T06:05:09.094Z,41.73
2023-04-29T06:06:41.057Z,41.54
2023-04-29T06:08:13.190Z,41.52
2023-04-29T06:09:44.746Z,41.71
2023-04-29T06:11:17.317Z,41.69
2023-04-29T06:12:52.135Z,41.71
2023-04-29T06:14:24.766Z,41.22
2023-04-29T06:15:56.580Z,41.51
2023-04-29T06:17:30.107Z,41.38
2023-04-29T06:19:02.381Z,41.76
2023-04-29T06:20:36.846Z,41.75
2023-04-29T06:22:09.244Z,41.94
2023-04-29T06:23:40.886Z,41.95
2023-04-29T06:25:12.393Z,42.52
2023-04-29T06:26:53.320Z,41.67
2023-04-29T06:28:25.354Z,41.72
2023-04-29T06:29:56.995Z,41.86
2023-04-29T06:31:28.915Z,42.10
2023-04-29T06:33:00.580Z,41.46
2023-04-29T06:34:32.229Z,41.95
2023-04-29T06:36:05.161Z,41.56
2023-04-29T06:37:38.195Z,41.64
2023-04-29T06:39:09.914Z,41.27
2023-04-29T06:40:41.494Z,41.38
2023-04-29T06:42:13.642Z,41.78
2023-04-29T06:43:47.339Z,42.11
2023-04-29T06:45:20.389Z,41.49
2023-04-29T06:46:51.979Z,41.25
2023-04-29T06:48:23.780Z,41.24
2023-04-29T06:49:55.568Z,41.29
2023-04-29T06:51:28.128Z,41.09
2023-04-29T06:52:59.934Z,41.18
2023-04-29T06:54:32.058Z,41.00
2023-04-29T06:56:03.604Z,41.08
2023-04-29T06:57:35.186Z,40.93
2023-04-29T06:59:07.157Z,40.74
2023-04-29T07:00:38.729Z,40.62
2023-04-29T07:02:10.287Z,40.65
2023-04-29T07:03:42.525Z,40.36
2023-04-29T07:05:14.222Z,40.61
2023-04-29T07:06:47.382Z,40.06
2023-04-29T07:08:19.337Z,40.17
2023-04-29T07:09:52.862Z,39.71
2023-04-29T07:11:27.531Z,39.83
2023-04-29T07:13:00.426Z,39.73
2023-04-29T07:14:32.104Z,39.50
2023-04-29T07:16:03.661Z,39.76
2023-04-29T07:17:35.277Z,39.62
2023-04-29T07:19:06.921Z,39.65
2023-04-29T07:20:38.571Z,39.79
2023-04-29T07:22:10.082Z,39.64
2023-04-29T07:23:41.610Z,39.72
2023-04-29T07:25:13.230Z,39.25
2023-04-29T07:26:47.719Z,39.13
2023-04-29T07:28:19.235Z,38.89
2023-04-29T07:29:51.029Z,38.52
2023-04-29T07:31:22.799Z,38.41
2023-04-29T07:32:54.638Z,38.60
2023-04-29T07:34:26.322Z,38.37
2023-04-29T07:35:58.030Z,38.79
2023-04-29T07:37:30.130Z,38.39
2023-04-29T07:39:01.653Z,38.04
2023-04-29T07:40:33.322Z,38.16
2023-04-29T07:42:05.237Z,38.14
2023-04-29T07:43:37.086Z,37.77
2023-04-29T07:45:08.883Z,37.81
2023-04-29T07:46:46.686Z,37.90
2023-04-29T07:48:18.305Z,37.83
2023-04-29T07:49:50.179Z,37.76
2023-04-29T07:51:22.112Z,37.66
2023-04-29T07:52:55.302Z,37.74
2023-04-29T07:54:27.899Z,37.35
2023-04-29T07:55:59.553Z,37.60
2023-04-29T07:57:31.121Z,37.31
2023-04-29T07:59:02.999Z,37.27
2023-04-29T08:00:34.530Z,37.33
2023-04-29T08:02:06.111Z,37.08
2023-04-29T08:03:40.886Z,36.85
2023-04-29T08:05:13.499Z,36.95
2023-04-29T08:06:45.412Z,36.95
2023-04-29T08:08:16.943Z,36.67
2023-04-29T08:09:48.531Z,36.77
2023-04-29T08:11:20.676Z,36.60
2023-04-29T08:12:52.171Z,36.60
2023-04-29T08:14:24.143Z,36.23
2023-04-29T08:15:55.925Z,36.29
2023-04-29T08:17:27.577Z,36.26
2023-04-29T08:18:59.118Z,36.18
2023-04-29T08:20:31.484Z,36.00
2023-04-29T08:22:04.550Z,35.96
2023-04-29T08:23:36.598Z,35.75
2023-04-29T08:25:08.647Z,35.56
2023-04-29T08:26:41.098Z,35.42
2023-04-29T08:28:13.254Z,35.58
2023-04-29T08:29:45.001Z,35.35
2023-04-29T08:31:17.341Z,35.24
2023-04-29T08:32:49.090Z,35.02
2023-04-29T08:34:20.714Z,34.79
2023-04-29T08:35:57.820Z,34.71
2023-04-29T08:37:29.861Z,34.71
2023-04-29T08:39:01.864Z,34.45
2023-04-29T08:40:36.965Z,34.50
2023-04-29T08:42:08.912Z,34.52
2023-04-29T08:43:43.570Z,34.33
2023-04-29T08:45:15.914Z,34.18
2023-04-29T08:46:47.559Z,34.17
2023-04-29T08:48:19.399Z,34.44
2023-04-29T08:49:51.141Z,34.28
2023-04-29T08:51:22.724Z,33.91
2023-04-29T08:52:54.467Z,34.15
2023-04-29T08:54:26.430Z,33.99
2023-04-29T08:55:58.768Z,34.04
2023-04-29T08:57:30.815Z,33.68
2023-04-29T08:59:02.453Z,33.66
2023-04-29T09:00:34.477Z,33.59
2023-04-29T09:02:09.233Z,33.28
2023-04-29T09:03:50.129Z,33.28
2023-04-29T09:05:22.497Z,33.13
2023-04-29T09:06:55.807Z,33.13
2023-04-29T09:08:27.515Z,33.32
2023-04-29T09:09:59.469Z,33.15
2023-04-29T09:11:31.018Z,33.12
2023-04-29T09:13:02.606Z,32.97
2023-04-29T09:14:34.907Z,32.92
2023-04-29T09:16:12.223Z,32.95
2023-04-29T09:17:44.784Z,32.82
2023-04-29T09:19:35.180Z,32.72
2023-04-29T09:21:22.312Z,32.64
2023-04-29T09:22:55.074Z,32.61
2023-04-29T09:24:27.705Z,32.86
2023-04-29T09:25:59.519Z,32.74
2023-04-29T09:27:31.787Z,32.77
2023-04-29T09:29:07.863Z,32.84
2023-04-29T09:30:45.715Z,32.43
2023-04-29T09:32:23.428Z,32.62
2023-04-29T09:33:55.930Z,32.31
2023-04-29T09:35:28.004Z,32.43
2023-04-29T09:36:59.611Z,32.33
2023-04-29T09:38:31.177Z,32.15
2023-04-29T09:40:03.330Z,32.00
2023-04-29T09:41:34.832Z,32.13
2023-04-29T09:43:12.914Z,32.21
2023-04-29T09:44:45.546Z,32.42
2023-04-29T09:46:17.225Z,32.23
2023-04-29T09:47:48.870Z,32.42
2023-04-29T09:49:27.111Z,32.62
2023-04-29T09:51:03.493Z,32.46
2023-04-29T09:52:42.828Z,32.14
2023-04-29T09:54:20.639Z,31.79
2023-04-29T09:55:58.322Z,32.03
2023-04-29T09:57:40.664Z,31.93
2023-04-29T09:59:13.719Z,31.69
2023-04-29T10:00:45.714Z,31.36
2023-04-29T10:02:21.082Z,31.39
2023-04-29T10:03:53.066Z,31.24
2023-04-29T10:05:25.870Z,31.26
2023-04-29T10:06:57.595Z,31.07
2023-04-29T10:08:29.420Z,30.92
2023-04-29T10:10:00.942Z,31.04
2023-04-29T10:11:32.821Z,30.89
2023-04-29T10:13:04.422Z,30.94
2023-04-29T10:14:39.298Z,30.95
2023-04-29T10:16:20.040Z,30.81
2023-04-29T10:18:12.649Z,30.68
2023-04-29T10:19:56.171Z,30.61
2023-04-29T10:21:29.055Z,30.44
2023-04-29T10:23:01.201Z,30.56
2023-04-29T10:24:32.817Z,30.49
2023-04-29T10:26:04.738Z,30.34
2023-04-29T10:27:36.732Z,30.30
2023-04-29T10:29:08.567Z,30.30
2023-04-29T10:30:40.470Z,30.19
2023-04-29T10:32:12.796Z,30.10
2023-04-29T10:33:46.098Z,30.08
2023-04-29T10:35:20.236Z,30.08
2023-04-29T10:36:51.956Z,30.33
2023-04-29T10:38:24.723Z,30.34
2023-04-29T10:40:12.555Z,30.46
2023-04-29T10:41:47.493Z,30.44
2023-04-29T10:43:25.408Z,30.47
2023-04-29T10:45:31.814Z,30.36
2023-04-29T10:47:18.748Z,30.54
2023-04-29T10:48:51.404Z,30.38
2023-04-29T10:50:23.263Z,30.59
2023-04-29T10:51:58.285Z,30.37
2023-04-29T10:53:29.930Z,30.45
2023-04-29T10:55:04.380Z,30.57
2023-04-29T10:56:37.719Z,30.42
2023-04-29T10:58:27.473Z,30.20
2023-04-29T10:59:59.741Z,30.46
2023-04-29T11:01:40.971Z,30.44
2023-04-29T11:03:12.657Z,30.36
2023-04-29T11:05:02.856Z,30.46
2023-04-29T11:06:38.381Z,30.49
2023-04-29T11:08:13.284Z,30.37
2023-04-29T11:09:48.951Z,30.31
2023-04-29T11:11:39.203Z,30.53
2023-04-29T11:15:44.581Z,30.46
2023-04-29T11:17:16.845Z,30.41
2023-04-29T11:19:07.720Z,30.47
2023-04-29T11:20:57.867Z,30.46
2023-04-29T11:22:34.039Z,30.38
2023-04-29T11:24:06.728Z,30.28
2023-04-29T11:25:49.511Z,30.46
2023-04-29T11:27:28.413Z,30.49
2023-04-29T11:32:52.147Z,30.67
2023-04-29T11:34:42.723Z,30.49
2023-04-29T11:36:14.584Z,30.74
2023-04-29T11:37:46.442Z,30.80
2023-04-29T11:39:18.111Z,30.52
2023-04-29T11:40:50.764Z,30.52
2023-04-29T11:42:22.503Z,30.63
2023-04-29T11:43:58.801Z,30.52
2023-04-29T11:45:30.557Z,30.45
2023-04-29T11:47:02.978Z,30.44
2023-04-29T11:48:34.562Z,30.61
2023-04-29T11:50:11.275Z,30.71
2023-04-29T11:55:33.587Z,30.37
2023-04-29T11:57:05.460Z,30.74
2023-04-29T11:58:37.390Z,30.63
2023-04-29T12:00:10.821Z,30.88
2023-04-29T12:01:42.544Z,30.78
2023-04-29T12:03:15.325Z,30.68
2023-04-29T12:04:47.480Z,30.69
2023-04-29T12:06:19.340Z,30.81
2023-04-29T12:07:51.822Z,30.64
2023-04-29T12:09:23.774Z,30.67
2023-04-29T12:10:55.857Z,30.73
2023-04-29T12:12:35.039Z,30.64
2023-04-29T12:14:07.102Z,30.51
2023-04-29T12:15:40.361Z,30.52
2023-04-29T12:17:12.219Z,30.78
2023-04-29T12:18:43.827Z,30.74
2023-04-29T12:20:15.543Z,30.96
2023-04-29T12:21:50.424Z,31.00
2023-04-29T12:23:28.695Z,30.84
2023-04-29T12:25:00.400Z,31.06
2023-04-29T12:26:33.007Z,30.96
2023-04-29T12:28:05.655Z,30.95
2023-04-29T12:29:39.082Z,30.84
2023-04-29T12:31:15.877Z,30.92
2023-04-29T12:32:55.769Z,30.87
2023-04-29T12:34:38.765Z,30.81
2023-04-29T12:36:21.875Z,30.96
2023-04-29T12:37:53.887Z,30.99
2023-04-29T12:39:25.750Z,30.93
2023-04-29T12:40:58.736Z,30.99
2023-04-29T12:42:34.542Z,30.87
2023-04-29T12:44:06.484Z,30.91
2023-04-29T12:45:38.564Z,30.91
2023-04-29T12:47:10.742Z,30.97
2023-04-29T12:48:43.986Z,31.00
2023-04-29T12:50:15.770Z,30.91
2023-04-29T12:51:47.605Z,31.14
2023-04-29T12:53:19.242Z,31.21
2023-04-29T12:54:51.229Z,31.19
2023-04-29T12:56:23.010Z,31.24
2023-04-29T12:57:54.601Z,31.40
2023-04-29T12:59:26.186Z,31.27
2023-04-29T13:00:58.973Z,31.08
2023-04-29T13:02:36.616Z,31.20
2023-04-29T13:04:15.497Z,31.16
2023-04-29T13:05:55.196Z,31.28
2023-04-29T13:07:28.968Z,31.48
2023-04-29T13:09:02.968Z,31.40
2023-04-29T13:10:37.116Z,31.51
2023-04-29T13:12:13.589Z,31.42
2023-04-29T13:13:51.419Z,31.28
2023-04-29T13:15:24.501Z,31.45
2023-04-29T13:17:04.294Z,31.59
2023-04-29T13:18:49.154Z,31.46
2023-04-29T13:20:32.702Z,31.57
2023-04-29T13:22:12.765Z,31.51
2023-04-29T13:36:21.346Z,32.24
2023-04-29T13:37:53.037Z,32.15
2023-04-29T13:39:25.108Z,32.17
2023-04-29T13:40:56.871Z,32.14
2023-04-29T13:42:28.547Z,32.22
2023-04-29T13:44:02.219Z,32.32
2023-04-29T13:45:42.750Z,32.39
2023-04-29T13:47:25.892Z,32.22
2023-04-29T13:54:57.531Z,31.88
2023-04-29T13:59:42.992Z,31.93
2023-04-29T14:04:29.451Z,32.06
2023-04-29T14:06:01.284Z,32.10
2023-04-29T14:07:32.934Z,31.97
2023-04-29T14:09:04.485Z,31.98
2023-04-29T14:10:37.145Z,32.05
2023-04-29T14:12:09.080Z,31.95
2023-04-29T14:13:51.687Z,32.01
2023-04-29T14:18:25.915Z,32.16
2023-04-29T14:19:58.136Z,32.53
2023-04-29T14:21:29.755Z,32.56
2023-04-29T14:23:01.950Z,32.80
2023-04-29T14:24:33.522Z,32.82
2023-04-29T14:26:23.014Z,33.06
2023-04-29T14:27:58.103Z,33.15
2023-04-29T14:29:30.028Z,33.18
2023-04-29T14:31:02.023Z,33.25
2023-04-29T14:32:34.226Z,33.18
2023-04-29T14:34:06.535Z,33.36
2023-04-29T14:35:38.169Z,33.27
2023-04-29T14:37:09.971Z,33.28
2023-04-29T14:38:41.628Z,33.20
2023-04-29T14:40:13.659Z,33.22
2023-04-29T14:41:45.637Z,33.26
2023-04-29T14:43:17.416Z,33.25
2023-04-29T14:44:49.124Z,33.38
2023-04-29T14:46:22.530Z,33.11
2023-04-29T14:47:54.478Z,33.20
2023-04-29T14:49:26.359Z,33.17
2023-04-29T14:50:58.334Z,33.30
2023-04-29T14:52:30.431Z,33.12
2023-04-29T14:54:02.019Z,33.06
2023-04-29T14:55:34.606Z,33.05
2023-04-29T14:57:06.456Z,33.21
2023-04-29T14:58:38.192Z,33.13
2023-04-29T15:00:13.012Z,33.18
2023-04-29T15:01:45.322Z,32.96
2023-04-29T15:03:22.360Z,32.95
2023-04-29T15:04:55.040Z,32.90
2023-04-29T15:06:27.827Z,33.20
2023-04-29T15:08:01.728Z,33.31
2023-04-29T15:09:33.702Z,33.36
2023-04-29T15:11:05.753Z,33.26
2023-04-29T15:12:37.442Z,33.20
2023-04-29T15:14:09.544Z,32.95
2023-04-29T15:15:41.742Z,33.08
2023-04-29T15:17:14.018Z,33.12
2023-04-29T15:18:46.029Z,33.11
2023-04-29T15:20:17.799Z,33.22
2023-04-29T15:21:49.668Z,33.35
2023-04-29T15:23:21.301Z,33.28
2023-04-29T15:24:53.192Z,33.46
2023-04-29T15:26:25.903Z,33.36
2023-04-29T15:27:59.355Z,33.50
2023-04-29T15:29:32.790Z,33.39
2023-04-29T15:31:06.203Z,33.44
2023-04-29T15:32:37.834Z,33.41
2023-04-29T15:34:09.555Z,33.42
2023-04-29T15:35:41.264Z,33.52
2023-04-29T15:37:13.343Z,33.55
2023-04-29T15:38:44.949Z,33.41
2023-04-29T15:40:17.848Z,33.41
2023-04-29T15:41:50.471Z,33.52
2023-04-29T15:43:22.843Z,33.52
2023-04-29T15:44:56.508Z,33.72
2023-04-29T15:46:30.016Z,33.61
2023-04-29T15:48:01.688Z,33.56
2023-04-29T15:49:33.509Z,33.57
2023-04-29T15:51:05.309Z,33.40
2023-04-29T15:52:37.708Z,33.35
2023-04-29T15:54:10.431Z,33.44
2023-04-29T15:55:41.999Z,33.38
2023-04-29T15:57:13.732Z,33.41
2023-04-29T15:58:45.542Z,33.31
2023-04-29T16:00:17.475Z,33.29
2023-04-29T16:01:49.415Z,33.11
2023-04-29T16:03:21.384Z,33.06
2023-04-29T16:04:53.106Z,33.06
2023-04-29T16:06:25.430Z,33.24
2023-04-29T16:07:57.289Z,33.25
2023-04-29T16:09:28.969Z,33.28
2023-04-29T16:11:00.831Z,33.12
2023-04-29T16:12:32.522Z,33.02
2023-04-29T16:14:04.420Z,32.88
2023-04-29T16:15:39.482Z,32.91
2023-04-29T16:17:12.925Z,32.88
2023-04-29T16:18:45.142Z,32.92
2023-04-29T16:20:17.774Z,33.00
2023-04-29T16:21:51.139Z,32.92
2023-04-29T16:23:23.392Z,33.06
2023-04-29T16:24:55.091Z,33.01
2023-04-29T16:26:26.772Z,32.77
2023-04-29T16:27:58.414Z,32.81
2023-04-29T16:29:30.191Z,32.72
2023-04-29T16:31:01.891Z,32.92
2023-04-29T16:32:34.705Z,32.79
2023-04-29T16:34:06.491Z,32.87
2023-04-29T16:35:38.368Z,32.93
2023-04-29T16:37:12.829Z,32.81
2023-04-29T16:38:44.377Z,33.07
2023-04-29T16:40:16.763Z,32.94
2023-04-29T16:41:48.814Z,33.15
2023-04-29T16:43:20.603Z,33.03
2023-04-29T16:44:52.111Z,33.18
2023-04-29T16:46:24.248Z,33.25
2023-04-29T16:47:56.203Z,33.20
2023-04-29T16:49:27.978Z,33.33
2023-04-29T16:50:59.609Z,33.40
2023-04-29T16:52:31.366Z,33.44
2023-04-29T16:54:03.679Z,33.47
2023-04-29T16:55:35.492Z,33.53
2023-04-29T16:57:07.490Z,33.46
2023-04-29T16:58:39.224Z,33.49
2023-04-29T17:00:11.373Z,33.40
2023-04-29T17:01:43.024Z,33.65
2023-04-29T17:03:15.047Z,33.58
2023-04-29T17:04:47.017Z,33.70
2023-04-29T17:06:19.713Z,33.87
2023-04-29T17:07:52.056Z,33.78
2023-04-29T17:09:26.054Z,33.98
2023-04-29T17:10:58.243Z,34.14
2023-04-29T17:12:30.160Z,34.34
2023-04-29T17:14:02.030Z,34.40
2023-04-29T17:15:33.754Z,34.46
2023-04-29T17:17:05.617Z,34.25
2023-04-29T17:18:38.280Z,34.37
2023-04-29T17:20:10.287Z,34.36
2023-04-29T17:21:41.870Z,34.46
2023-04-29T17:23:13.463Z,34.45
2023-04-29T17:24:46.510Z,34.28
2023-04-29T17:26:18.887Z,34.39
2023-04-29T17:27:50.585Z,34.36
2023-04-29T17:29:22.440Z,34.24
2023-04-29T17:31:00.334Z,34.22
2023-04-29T17:32:39.468Z,34.44
2023-04-29T17:34:23.962Z,34.34
2023-04-29T17:35:55.536Z,34.35
2023-04-29T17:37:27.683Z,34.77
2023-04-29T17:39:00.114Z,34.86
2023-04-29T17:40:32.409Z,34.91
2023-04-29T17:42:04.731Z,34.99
2023-04-29T17:43:37.109Z,35.24
2023-04-29T17:45:09.001Z,34.96
2023-04-29T17:46:40.857Z,35.30
2023-04-29T17:48:15.322Z,35.37
2023-04-29T17:49:47.020Z,35.11
2023-04-29T17:51:18.743Z,35.31
2023-04-29T17:52:50.721Z,35.54
2023-04-29T17:54:22.728Z,35.63
2023-04-29T17:55:54.604Z,35.53
2023-04-29T17:57:28.853Z,35.71
2023-04-29T17:59:05.269Z,35.50
2023-04-29T18:00:37.262Z,35.58
2023-04-29T18:02:08.815Z,35.86
2023-04-29T18:03:42.207Z,35.94
2023-04-29T18:05:14.212Z,35.80
2023-04-29T18:06:45.943Z,35.90
2023-04-29T18:08:17.554Z,35.75
2023-04-29T18:09:49.238Z,35.84
2023-04-29T18:11:21.328Z,35.43
2023-04-29T18:12:52.983Z,35.54
2023-04-29T18:14:24.798Z,35.40
2023-04-29T18:15:56.398Z,35.54
2023-04-29T18:17:28.158Z,35.29
2023-04-29T18:18:59.879Z,35.34
2023-04-29T18:20:31.962Z,35.45
2023-04-29T18:22:03.618Z,35.77
2023-04-29T18:23:35.861Z,35.20
2023-04-29T18:25:07.588Z,35.68
2023-04-29T18:26:39.200Z,35.18
2023-04-29T18:28:24.020Z,35.21
2023-04-29T18:29:56.966Z,35.29
2023-04-29T18:31:28.676Z,35.63
2023-04-29T18:33:00.807Z,35.64
2023-04-29T18:34:32.475Z,35.56
2023-04-29T18:36:04.530Z,35.67
2023-04-29T18:37:36.267Z,35.57
2023-04-29T18:39:08.130Z,35.66
2023-04-29T18:40:40.457Z,35.54
2023-04-29T18:42:11.978Z,35.63
2023-04-29T18:43:43.692Z,35.42
2023-04-29T18:45:15.257Z,35.79
2023-04-29T18:46:47.472Z,35.76
2023-04-29T18:48:19.145Z,35.81
2023-04-29T18:49:50.809Z,35.74
2023-04-29T18:51:23.095Z,35.92
2023-04-29T18:52:54.864Z,35.85
2023-04-29T18:54:27.301Z,36.11
2023-04-29T18:55:58.916Z,35.76
2023-04-29T18:57:31.133Z,35.88
2023-04-29T18:59:02.800Z,36.02
2023-04-29T19:00:34.550Z,35.94
2023-04-29T19:02:06.903Z,35.94
2023-04-29T19:03:38.900Z,36.00
2023-04-29T19:05:13.054Z,36.20
2023-04-29T19:06:44.875Z,36.16
2023-04-29T19:08:17.036Z,36.10
2023-04-29T19:09:48.677Z,36.28
2023-04-29T19:11:20.368Z,36.95
2023-04-29T19:12:52.308Z,36.57
2023-04-29T19:14:23.932Z,36.53
2023-04-29T19:15:55.671Z,36.63
2023-04-29T19:17:27.362Z,36.69
2023-04-29T19:18:59.448Z,36.85
2023-04-29T19:20:31.527Z,37.13
2023-04-29T19:22:05.475Z,37.29
2023-04-29T19:23:37.231Z,37.14
2023-04-29T19:25:10.445Z,37.20
2023-04-29T19:26:42.233Z,37.04
2023-04-29T19:28:13.912Z,37.34
2023-04-29T19:29:45.901Z,37.54
2023-04-29T19:31:18.277Z,37.68
2023-04-29T19:32:50.391Z,37.54
2023-04-29T19:34:22.316Z,37.71
2023-04-29T19:35:54.120Z,37.89
2023-04-29T19:37:26.224Z,38.01
2023-04-29T19:38:58.489Z,37.93
2023-04-29T19:40:30.134Z,37.69
2023-04-29T19:42:04.148Z,37.89
2023-04-29T19:43:35.827Z,37.84
2023-04-29T19:45:07.896Z,38.11
2023-04-29T19:46:41.239Z,38.18
2023-04-29T19:48:13.012Z,37.89
2023-04-29T19:49:44.721Z,38.21
2023-04-29T19:51:16.381Z,38.33
2023-04-29T19:52:48.053Z,38.30
2023-04-29T19:54:24.778Z,38.41
2023-04-29T19:55:57.193Z,38.24
2023-04-29T19:57:29.415Z,38.17
2023-04-29T19:59:01.759Z,38.49
2023-04-29T20:00:33.902Z,38.36
2023-04-29T20:02:06.219Z,38.49
2023-04-29T20:03:39.473Z,38.04
2023-04-29T20:05:12.017Z,38.19
2023-04-29T20:06:43.914Z,38.42
2023-04-29T20:08:15.823Z,38.46
2023-04-29T20:09:48.874Z,38.39
2023-04-29T20:11:21.622Z,38.70
2023-04-29T20:12:53.978Z,38.72
2023-04-29T20:14:26.246Z,38.31
2023-04-29T20:15:58.432Z,38.71
2023-04-29T20:17:30.142Z,38.56
2023-04-29T20:19:02.346Z,38.57
2023-04-29T20:20:34.095Z,38.61
2023-04-29T20:22:05.951Z,38.98
2023-04-29T20:23:37.704Z,38.72
2023-04-29T20:25:09.854Z,38.79
2023-04-29T20:26:41.574Z,38.79
2023-04-29T20:28:13.824Z,39.09
2023-04-29T20:29:45.647Z,39.22
2023-04-29T20:31:17.893Z,38.78
2023-04-29T20:32:49.420Z,39.13
2023-04-29T20:34:21.335Z,39.03
2023-04-29T20:35:53.663Z,39.07
2023-04-29T20:37:25.365Z,38.78